createdAt,value
2019-03-27T00:00:13.038Z,4.80
2019-03-27T00:01:13.046Z,4.75
2019-03-27T00:02:13.032Z,4.74
2019-03-27T00:03:13.024Z,4.84
2019-03-27T00:04:12.994Z,4.83
2019-03-27T00:05:12.982Z,4.80
2019-03-27T00:06:12.974Z,4.88
2019-03-27T00:07:12.954Z,4.86
2019-03-27T00:08:12.975Z,4.97
2019-03-27T00:09:12.931Z,4.97
2019-03-27T00:10:12.921Z,5.05
2019-03-27T00:11:15.971Z,5.04
2019-03-27T00:12:12.911Z,5.05
2019-03-27T00:13:12.896Z,5.17
2019-03-27T00:14:12.906Z,5.14
2019-03-27T00:15:13.851Z,5.11
2019-03-27T00:16:12.860Z,5.17
2019-03-27T00:17:12.850Z,5.22
2019-03-27T00:18:12.829Z,5.20
2019-03-27T00:19:12.849Z,5.24
2019-03-27T00:20:12.845Z,5.33
2019-03-27T00:21:12.815Z,5.32
2019-03-27T00:22:12.797Z,5.38
2019-03-27T00:23:12.793Z,5.26
2019-03-27T00:24:12.816Z,5.32
2019-03-27T00:25:12.765Z,5.32
2019-03-27T00:26:12.775Z,5.35
2019-03-27T00:27:12.752Z,5.37
2019-03-27T00:28:12.736Z,5.32
2019-03-27T00:29:12.764Z,5.33
2019-03-27T00:30:12.709Z,5.41
2019-03-27T00:31:12.702Z,5.38
2019-03-27T00:32:12.701Z,5.30
2019-03-27T00:33:12.697Z,5.30
2019-03-27T00:34:12.674Z,5.33
2019-03-27T00:35:12.696Z,5.35
2019-03-27T00:36:12.646Z,5.38
2019-03-27T00:37:12.634Z,5.40
2019-03-27T00:38:12.634Z,5.40
2019-03-27T00:39:12.625Z,5.37
2019-03-27T00:40:12.632Z,5.38
2019-03-27T00:41:12.628Z,5.42
2019-03-27T00:42:12.595Z,5.35
2019-03-27T00:43:12.574Z,5.33
2019-03-27T00:44:12.568Z,5.42
2019-03-27T00:45:25.434Z,5.45
2019-03-27T00:46:13.581Z,5.48
2019-03-27T00:47:12.533Z,5.47
2019-03-27T00:48:12.521Z,5.44
2019-03-27T00:49:12.508Z,5.49
2019-03-27T00:50:12.517Z,5.47
2019-03-27T00:51:12.487Z,5.45
2019-03-27T00:52:12.509Z,5.41
2019-03-27T00:53:12.477Z,5.48
2019-03-27T00:54:12.456Z,5.45
2019-03-27T00:55:12.453Z,5.47
2019-03-27T00:56:12.454Z,5.38
2019-03-27T00:57:12.459Z,5.35
2019-03-27T00:58:12.428Z,5.40
2019-03-27T00:59:12.416Z,5.41
2019-03-27T01:00:12.391Z,5.40
2019-03-27T01:01:12.383Z,5.48
2019-03-27T01:02:12.403Z,5.42
2019-03-27T01:03:12.362Z,5.47
2019-03-27T01:04:12.352Z,5.47
2019-03-27T01:05:12.345Z,5.42
2019-03-27T01:06:12.336Z,5.55
2019-03-27T01:07:12.336Z,5.45
2019-03-27T01:08:12.304Z,5.55
2019-03-27T01:09:12.298Z,5.55
2019-03-27T01:10:12.300Z,5.47
2019-03-27T01:11:12.282Z,5.44
2019-03-27T01:12:12.286Z,5.49
2019-03-27T01:13:12.304Z,5.45
2019-03-27T01:14:12.243Z,5.49
2019-03-27T01:15:12.243Z,5.44
2019-03-27T01:16:12.244Z,5.45
2019-03-27T01:17:12.228Z,5.55
2019-03-27T01:18:12.209Z,5.52
2019-03-27T01:19:12.235Z,5.52
2019-03-27T01:20:12.201Z,5.48
2019-03-27T01:21:12.185Z,5.42
2019-03-27T01:22:12.163Z,5.42
2019-03-27T01:23:12.160Z,5.44
2019-03-27T01:24:12.149Z,5.40
2019-03-27T01:25:12.162Z,5.42
2019-03-27T01:26:20.225Z,5.47
2019-03-27T01:27:12.121Z,5.44
2019-03-27T01:28:12.101Z,5.44
2019-03-27T01:29:12.120Z,5.45
2019-03-27T01:30:12.083Z,5.44
2019-03-27T01:31:12.063Z,5.47
2019-03-27T01:32:12.050Z,5.44
2019-03-27T01:33:12.044Z,5.44
2019-03-27T01:34:12.035Z,5.38
2019-03-27T01:35:12.052Z,5.38
2019-03-27T01:36:12.025Z,5.44
2019-03-27T01:37:12.006Z,5.40
2019-03-27T01:38:11.992Z,5.35
2019-03-27T01:39:11.982Z,5.37
2019-03-27T01:40:11.993Z,5.35
2019-03-27T01:41:11.966Z,5.37
2019-03-27T01:42:11.956Z,5.35
2019-03-27T01:43:11.942Z,5.33
2019-03-27T01:44:11.933Z,5.29
2019-03-27T01:45:11.947Z,5.24
2019-03-27T01:46:11.918Z,5.33
2019-03-27T01:47:11.902Z,5.29
2019-03-27T01:48:11.895Z,5.38
2019-03-27T01:49:11.880Z,5.32
2019-03-27T01:50:11.892Z,5.30
2019-03-27T01:51:11.857Z,5.41
2019-03-27T01:52:11.858Z,5.33
2019-03-27T01:53:11.834Z,5.35
2019-03-27T01:54:11.827Z,5.32
2019-03-27T01:55:11.818Z,5.30
2019-03-27T01:56:11.832Z,5.27
2019-03-27T01:57:11.807Z,5.27
2019-03-27T01:58:11.796Z,5.27
2019-03-27T01:59:11.783Z,5.35
2019-03-27T02:00:11.764Z,5.33
2019-03-27T02:01:11.771Z,5.40
2019-03-27T02:02:11.739Z,5.37
2019-03-27T02:03:11.746Z,5.35
2019-03-27T02:04:11.719Z,5.47
2019-03-27T02:05:11.705Z,5.35
2019-03-27T02:06:11.706Z,5.42
2019-03-27T02:07:11.719Z,5.44
2019-03-27T02:08:11.681Z,5.42
2019-03-27T02:09:11.684Z,5.42
2019-03-27T02:10:11.653Z,5.45
2019-03-27T02:11:11.652Z,5.38
2019-03-27T02:12:11.659Z,5.35
2019-03-27T02:13:11.651Z,5.42
2019-03-27T02:14:11.620Z,5.33
2019-03-27T02:15:11.610Z,5.40
2019-03-27T02:16:11.596Z,5.26
2019-03-27T02:17:11.588Z,5.27
2019-03-27T02:18:11.601Z,5.27
2019-03-27T02:19:11.571Z,5.24
2019-03-27T02:20:11.562Z,5.24
2019-03-27T02:21:11.551Z,5.29
2019-03-27T02:22:11.535Z,5.26
2019-03-27T02:23:11.541Z,5.29
2019-03-27T02:24:11.534Z,5.24
2019-03-27T02:25:11.518Z,5.23
2019-03-27T02:26:11.497Z,5.27
2019-03-27T02:27:11.496Z,5.24
2019-03-27T02:28:11.467Z,5.22
2019-03-27T02:29:11.454Z,5.20
2019-03-27T02:30:11.496Z,5.24
2019-03-27T02:31:11.444Z,5.20
2019-03-27T02:32:11.437Z,5.20
2019-03-27T02:33:11.434Z,5.22
2019-03-27T02:34:11.430Z,5.22
2019-03-27T02:35:11.416Z,5.15
2019-03-27T02:36:11.384Z,5.20
2019-03-27T02:37:11.374Z,5.23
2019-03-27T02:38:11.374Z,5.27
2019-03-27T02:39:11.360Z,5.27
2019-03-27T02:40:11.366Z,5.30
2019-03-27T02:41:11.342Z,5.32
2019-03-27T02:42:11.318Z,5.33
2019-03-27T02:43:11.318Z,5.29
2019-03-27T02:44:11.306Z,5.35
2019-03-27T02:45:11.335Z,5.26
2019-03-27T02:46:23.600Z,5.35
2019-03-27T02:47:12.269Z,5.35
2019-03-27T02:48:13.927Z,5.35
2019-03-27T02:49:11.249Z,5.38
2019-03-27T02:50:11.245Z,5.35
2019-03-27T02:51:11.276Z,5.37
2019-03-27T02:52:11.237Z,5.35
2019-03-27T02:53:11.218Z,5.35
2019-03-27T02:54:11.198Z,5.42
2019-03-27T02:55:11.186Z,5.42
2019-03-27T02:56:11.205Z,5.44
2019-03-27T02:57:11.162Z,5.42
2019-03-27T02:58:11.163Z,5.45
2019-03-27T02:59:11.146Z,5.44
2019-03-27T03:00:11.159Z,5.45
2019-03-27T03:01:11.132Z,5.44
2019-03-27T03:02:11.664Z,5.49
2019-03-27T03:03:11.124Z,5.51
2019-03-27T03:04:11.100Z,5.49
2019-03-27T03:05:11.110Z,5.48
2019-03-27T03:06:11.161Z,5.59
2019-03-27T03:07:11.095Z,5.59
2019-03-27T03:08:11.132Z,5.60
2019-03-27T03:09:11.052Z,5.65
2019-03-27T03:10:11.042Z,5.70
2019-03-27T03:11:11.048Z,5.65
2019-03-27T03:12:11.015Z,5.69
2019-03-27T03:13:11.026Z,5.65
2019-03-27T03:14:11.003Z,5.67
2019-03-27T03:15:11.013Z,5.69
2019-03-27T03:16:10.983Z,5.73
2019-03-27T03:17:10.994Z,5.74
2019-03-27T03:18:10.994Z,5.70
2019-03-27T03:19:10.947Z,5.74
2019-03-27T03:20:10.954Z,5.74
2019-03-27T03:21:10.935Z,5.78
2019-03-27T03:22:10.918Z,5.80
2019-03-27T03:23:10.947Z,5.84
2019-03-27T03:24:10.890Z,5.80
2019-03-27T03:25:10.893Z,5.80
2019-03-27T03:26:10.888Z,5.84
2019-03-27T03:27:10.888Z,5.84
2019-03-27T03:28:10.889Z,5.88
2019-03-27T03:29:10.841Z,5.95
2019-03-27T03:30:10.840Z,5.92
2019-03-27T03:31:10.835Z,5.96
2019-03-27T03:32:10.818Z,5.90
2019-03-27T03:33:10.821Z,5.95
2019-03-27T03:34:10.846Z,5.93
2019-03-27T03:35:10.783Z,5.92
2019-03-27T03:36:10.768Z,5.98
2019-03-27T03:37:10.761Z,5.95
2019-03-27T03:38:10.760Z,5.95
2019-03-27T03:39:10.739Z,5.98
2019-03-27T03:40:10.770Z,5.98
2019-03-27T03:41:10.718Z,5.98
2019-03-27T03:42:10.696Z,6.02
2019-03-27T03:43:10.691Z,5.95
2019-03-27T03:44:10.686Z,5.95
2019-03-27T03:45:10.668Z,6.01
2019-03-27T03:46:10.693Z,5.98
2019-03-27T03:47:10.647Z,5.96
2019-03-27T03:48:10.628Z,5.95
2019-03-27T03:49:10.623Z,6.01
2019-03-27T03:50:10.642Z,5.90
2019-03-27T03:51:10.604Z,5.98
2019-03-27T03:52:10.594Z,6.01
2019-03-27T03:53:10.587Z,5.92
2019-03-27T03:54:10.568Z,5.95
2019-03-27T03:55:10.668Z,5.95
2019-03-27T03:56:10.552Z,5.98
2019-03-27T03:57:10.531Z,5.98
2019-03-27T03:58:10.595Z,6.06
2019-03-27T03:59:10.521Z,6.05
2019-03-27T04:00:10.569Z,6.06
2019-03-27T04:01:10.517Z,6.08
2019-03-27T04:02:10.487Z,6.06
2019-03-27T04:03:10.466Z,6.11
2019-03-27T04:04:10.478Z,6.11
2019-03-27T04:05:10.458Z,6.06
2019-03-27T04:06:10.461Z,6.16
2019-03-27T04:07:10.428Z,6.14
2019-03-27T04:08:10.423Z,6.14
2019-03-27T04:09:10.403Z,6.24
2019-03-27T04:10:10.403Z,6.14
2019-03-27T04:11:10.416Z,6.13
2019-03-27T04:12:10.404Z,6.25
2019-03-27T04:13:10.381Z,6.27
2019-03-27T04:14:10.359Z,6.25
2019-03-27T04:15:10.348Z,6.28
2019-03-27T04:16:10.335Z,6.25
2019-03-27T04:17:17.682Z,6.19
2019-03-27T04:18:11.322Z,6.21
2019-03-27T04:19:10.308Z,6.21
2019-03-27T04:20:10.297Z,6.24
2019-03-27T04:21:10.283Z,6.24
2019-03-27T04:22:10.280Z,6.24
2019-03-27T04:23:10.305Z,6.28
2019-03-27T04:24:10.258Z,6.32
2019-03-27T04:25:10.249Z,6.32
2019-03-27T04:26:10.924Z,6.35
2019-03-27T04:27:10.218Z,6.36
2019-03-27T04:28:10.212Z,6.33
2019-03-27T04:29:10.233Z,6.33
2019-03-27T04:30:10.212Z,6.39
2019-03-27T04:31:10.189Z,6.36
2019-03-27T04:32:10.176Z,6.33
2019-03-27T04:33:10.162Z,6.32
2019-03-27T04:34:10.149Z,6.43
2019-03-27T04:35:10.151Z,6.36
2019-03-27T04:36:10.142Z,6.30
2019-03-27T04:37:10.139Z,6.33
2019-03-27T04:38:10.128Z,6.36
2019-03-27T04:39:10.093Z,6.46
2019-03-27T04:40:10.085Z,6.40
2019-03-27T04:41:10.076Z,6.43
2019-03-27T04:42:10.094Z,6.32
2019-03-27T04:43:10.060Z,6.38
2019-03-27T04:44:10.048Z,6.36
2019-03-27T04:45:10.037Z,6.38
2019-03-27T04:46:10.027Z,6.36
2019-03-27T04:47:10.051Z,6.36
2019-03-27T04:48:10.008Z,6.35
2019-03-27T04:49:09.994Z,6.45
2019-03-27T04:50:09.987Z,6.43
2019-03-27T04:51:09.975Z,6.38
2019-03-27T04:52:09.960Z,6.43
2019-03-27T04:53:09.980Z,6.36
2019-03-27T04:54:09.955Z,6.33
2019-03-27T04:55:09.934Z,6.39
2019-03-27T04:56:09.930Z,6.40
2019-03-27T04:57:09.918Z,6.40
2019-03-27T04:58:09.895Z,6.43
2019-03-27T04:59:09.906Z,6.39
2019-03-27T05:00:09.905Z,6.45
2019-03-27T05:01:09.871Z,6.35
2019-03-27T05:02:09.861Z,6.43
2019-03-27T05:03:09.851Z,6.40
2019-03-27T05:04:09.847Z,6.36
2019-03-27T05:05:09.876Z,6.42
2019-03-27T05:06:09.814Z,6.50
2019-03-27T05:07:09.815Z,6.42
2019-03-27T05:08:09.800Z,6.46
2019-03-27T05:09:09.825Z,6.51
2019-03-27T05:10:09.776Z,6.46
2019-03-27T05:11:09.778Z,6.57
2019-03-27T05:12:09.753Z,6.46
2019-03-27T05:13:09.750Z,6.54
2019-03-27T05:14:09.738Z,6.53
2019-03-27T05:15:09.751Z,6.46
2019-03-27T05:16:09.727Z,6.46
2019-03-27T05:17:09.718Z,6.46
2019-03-27T05:18:09.692Z,6.43
2019-03-27T05:19:09.686Z,6.40
2019-03-27T05:20:09.703Z,6.43
2019-03-27T05:21:09.661Z,6.43
2019-03-27T05:22:09.660Z,6.55
2019-03-27T05:23:09.658Z,6.45
2019-03-27T05:24:09.625Z,6.48
2019-03-27T05:25:09.617Z,6.46
2019-03-27T05:26:09.632Z,6.50
2019-03-27T05:27:09.603Z,6.51
2019-03-27T05:28:09.592Z,6.50
2019-03-27T05:29:09.584Z,6.50
2019-03-27T05:30:09.575Z,6.50
2019-03-27T05:31:09.576Z,6.61
2019-03-27T05:32:09.549Z,6.53
2019-03-27T05:33:09.538Z,6.60
2019-03-27T05:34:09.730Z,6.61
2019-03-27T05:35:09.524Z,6.61
2019-03-27T05:36:09.510Z,6.51
2019-03-27T05:37:09.548Z,6.61
2019-03-27T05:38:09.485Z,6.58
2019-03-27T05:39:09.477Z,6.65
2019-03-27T05:40:09.499Z,6.68
2019-03-27T05:41:09.472Z,6.58
2019-03-27T05:42:09.444Z,6.58
2019-03-27T05:43:09.436Z,6.55
2019-03-27T05:44:09.425Z,6.64
2019-03-27T05:45:09.419Z,6.61
2019-03-27T05:46:09.439Z,6.69
2019-03-27T05:47:09.402Z,6.58
2019-03-27T05:48:09.390Z,6.60
2019-03-27T05:49:09.377Z,6.69
2019-03-27T05:50:09.359Z,6.72
2019-03-27T05:51:09.352Z,6.68
2019-03-27T05:52:09.369Z,6.79
2019-03-27T05:53:09.334Z,6.78
2019-03-27T05:54:09.326Z,6.75
2019-03-27T05:55:09.315Z,6.76
2019-03-27T05:56:09.299Z,6.76
2019-03-27T05:57:09.308Z,6.76
2019-03-27T05:58:09.283Z,6.78
2019-03-27T05:59:09.286Z,6.81
2019-03-27T06:00:09.263Z,6.81
2019-03-27T06:01:09.259Z,6.81
2019-03-27T06:02:09.267Z,6.76
2019-03-27T06:03:09.228Z,6.79
2019-03-27T06:04:09.220Z,6.78
2019-03-27T06:05:09.212Z,6.81
2019-03-27T06:06:09.202Z,6.81
2019-03-27T06:07:09.192Z,6.82
2019-03-27T06:08:09.205Z,6.79
2019-03-27T06:09:09.191Z,6.78
2019-03-27T06:10:09.161Z,6.78
2019-03-27T06:11:09.155Z,6.79
2019-03-27T06:12:09.145Z,6.93
2019-03-27T06:13:09.155Z,6.91
2019-03-27T06:14:09.138Z,6.87
2019-03-27T06:15:09.108Z,6.89
2019-03-27T06:16:09.103Z,6.81
2019-03-27T06:17:09.084Z,6.86
2019-03-27T06:18:13.268Z,6.76
2019-03-27T06:19:09.070Z,6.86
2019-03-27T06:20:09.062Z,6.81
2019-03-27T06:21:09.052Z,6.75
2019-03-27T06:22:09.032Z,6.75
2019-03-27T06:23:09.058Z,6.76
2019-03-27T06:24:09.020Z,6.76
2019-03-27T06:25:09.022Z,6.79
2019-03-27T06:26:09.007Z,6.82
2019-03-27T06:27:08.985Z,6.82
2019-03-27T06:28:08.988Z,6.86
2019-03-27T06:29:08.958Z,6.86
2019-03-27T06:30:09.030Z,6.89
2019-03-27T06:31:08.947Z,6.81
2019-03-27T06:32:08.943Z,6.94
2019-03-27T06:33:08.939Z,6.99
2019-03-27T06:34:08.914Z,7.00
2019-03-27T06:35:08.893Z,7.01
2019-03-27T06:36:08.885Z,6.91
2019-03-27T06:37:08.880Z,6.91
2019-03-27T06:38:08.897Z,7.04
2019-03-27T06:39:08.868Z,7.01
2019-03-27T06:40:08.851Z,7.11
2019-03-27T06:41:08.840Z,7.16
2019-03-27T06:42:08.828Z,7.15
2019-03-27T06:43:08.808Z,7.15
2019-03-27T06:44:08.825Z,7.09
2019-03-27T06:45:08.797Z,7.18
2019-03-27T06:46:08.781Z,7.09
2019-03-27T06:47:08.786Z,7.15
2019-03-27T06:48:08.759Z,7.26
2019-03-27T06:49:08.796Z,7.33
2019-03-27T06:50:08.744Z,7.34
2019-03-27T06:51:08.737Z,7.34
2019-03-27T06:52:08.741Z,7.57
2019-03-27T06:53:08.739Z,7.55
2019-03-27T06:54:08.708Z,7.62
2019-03-27T06:55:08.712Z,7.54
2019-03-27T06:56:08.675Z,7.51
2019-03-27T06:57:08.666Z,7.51
2019-03-27T06:58:08.660Z,7.47
2019-03-27T06:59:08.643Z,7.42
2019-03-27T07:00:08.690Z,7.41
2019-03-27T07:01:08.620Z,7.45
2019-03-27T07:02:08.679Z,7.45
2019-03-27T07:03:08.606Z,7.48
2019-03-27T07:04:10.729Z,7.55
2019-03-27T07:05:08.579Z,7.54
2019-03-27T07:06:08.585Z,7.60
2019-03-27T07:07:08.551Z,7.70
2019-03-27T07:08:08.543Z,7.74
2019-03-27T07:09:08.563Z,7.73
2019-03-27T07:10:08.528Z,7.81
2019-03-27T07:11:08.516Z,7.74
2019-03-27T07:12:20.422Z,7.79
2019-03-27T07:13:09.496Z,7.85
2019-03-27T07:14:08.497Z,7.79
2019-03-27T07:15:08.483Z,7.67
2019-03-27T07:16:08.474Z,7.82
2019-03-27T07:17:08.453Z,7.88
2019-03-27T07:18:08.442Z,7.84
2019-03-27T07:19:08.451Z,7.81
2019-03-27T07:20:08.423Z,7.95
2019-03-27T07:21:08.404Z,7.91
2019-03-27T07:22:08.433Z,7.94
2019-03-27T07:23:08.403Z,8.02
2019-03-27T07:24:08.395Z,7.94
2019-03-27T07:25:08.371Z,8.00
2019-03-27T07:26:08.359Z,8.07
2019-03-27T07:27:08.350Z,8.14
2019-03-27T07:28:08.364Z,8.10
2019-03-27T07:29:08.324Z,8.17
2019-03-27T07:30:08.336Z,8.20
2019-03-27T07:31:08.306Z,8.17
2019-03-27T07:32:08.298Z,8.29
2019-03-27T07:33:08.287Z,8.25
2019-03-27T07:34:08.275Z,8.21
2019-03-27T07:35:08.298Z,8.12
2019-03-27T07:36:08.262Z,8.24
2019-03-27T07:37:08.241Z,8.24
2019-03-27T07:38:08.231Z,8.22
2019-03-27T07:39:11.137Z,8.29
2019-03-27T07:40:08.213Z,8.42
2019-03-27T07:41:08.215Z,8.36
2019-03-27T07:42:08.263Z,8.54
2019-03-27T07:43:08.181Z,8.49
2019-03-27T07:44:08.187Z,8.45
2019-03-27T07:45:08.165Z,8.50
2019-03-27T07:46:08.150Z,8.43
2019-03-27T07:47:08.139Z,8.68
2019-03-27T07:48:09.122Z,8.73
2019-03-27T07:49:08.146Z,8.76
2019-03-27T07:50:08.105Z,8.75
2019-03-27T07:51:08.087Z,8.76
2019-03-27T07:52:08.075Z,8.76
2019-03-27T07:53:08.072Z,8.71
2019-03-27T07:54:08.089Z,8.68
2019-03-27T07:55:18.748Z,8.71
2019-03-27T07:56:09.043Z,8.83
2019-03-27T07:57:08.054Z,8.73
2019-03-27T07:58:08.017Z,8.76
2019-03-27T07:59:08.016Z,8.83
2019-03-27T08:00:08.002Z,8.82
2019-03-27T08:01:07.989Z,8.86
2019-03-27T08:02:08.010Z,8.80
2019-03-27T08:03:07.969Z,8.83
2019-03-27T08:04:07.990Z,8.78
2019-03-27T08:05:07.944Z,8.80
2019-03-27T08:06:07.941Z,8.85
2019-03-27T08:07:07.944Z,8.78
2019-03-27T08:08:07.958Z,8.80
2019-03-27T08:09:07.918Z,8.83
2019-03-27T08:10:07.982Z,8.64
2019-03-27T08:11:07.885Z,8.82
2019-03-27T08:12:07.900Z,8.78
2019-03-27T08:13:07.882Z,8.78
2019-03-27T08:14:07.857Z,8.82
2019-03-27T08:15:07.840Z,8.93
2019-03-27T08:16:07.830Z,8.91
2019-03-27T08:17:07.830Z,8.97
2019-03-27T08:18:07.840Z,8.96
2019-03-27T08:19:08.285Z,8.89
2019-03-27T08:20:07.789Z,9.00
2019-03-27T08:21:07.779Z,8.93
2019-03-27T08:22:07.760Z,8.89
2019-03-27T08:23:07.782Z,8.91
2019-03-27T08:24:07.739Z,8.89
2019-03-27T08:25:07.730Z,8.93
2019-03-27T08:26:07.730Z,8.82
2019-03-27T08:27:07.711Z,8.88
2019-03-27T08:28:07.700Z,8.89
2019-03-27T08:29:07.803Z,8.75
2019-03-27T08:30:07.678Z,8.88
2019-03-27T08:31:07.665Z,8.89
2019-03-27T08:32:07.652Z,8.91
2019-03-27T08:33:07.640Z,8.97
2019-03-27T08:34:07.665Z,8.88
2019-03-27T08:35:07.625Z,8.98
2019-03-27T08:36:07.616Z,8.94
2019-03-27T08:37:07.601Z,9.06
2019-03-27T08:38:07.591Z,9.12
2019-03-27T08:39:07.611Z,9.12
2019-03-27T08:40:07.586Z,9.15
2019-03-27T08:41:07.566Z,9.19
2019-03-27T08:42:07.543Z,9.22
2019-03-27T08:43:20.689Z,9.10
2019-03-27T08:44:08.544Z,9.04
2019-03-27T08:45:07.535Z,9.10
2019-03-27T08:46:07.516Z,9.15
2019-03-27T08:47:07.501Z,9.03
2019-03-27T08:48:07.487Z,9.15
2019-03-27T08:49:20.760Z,9.12
2019-03-27T08:50:08.478Z,9.24
2019-03-27T08:51:07.449Z,9.16
2019-03-27T08:52:07.454Z,8.94
2019-03-27T08:53:07.447Z,8.94
2019-03-27T08:54:07.424Z,8.85
2019-03-27T08:55:07.432Z,8.88
2019-03-27T08:56:07.408Z,8.94
2019-03-27T08:57:07.389Z,9.01
2019-03-27T08:58:07.380Z,9.01
2019-03-27T08:59:07.383Z,8.93
2019-03-27T09:00:07.389Z,8.96
2019-03-27T09:01:07.367Z,8.86
2019-03-27T09:02:07.335Z,8.82
2019-03-27T09:03:07.323Z,8.88
2019-03-27T09:04:07.318Z,8.85
2019-03-27T09:05:07.328Z,8.67
2019-03-27T09:06:07.310Z,8.63
2019-03-27T09:07:07.287Z,8.68
2019-03-27T09:08:07.277Z,8.71
2019-03-27T09:09:07.258Z,8.78
2019-03-27T09:10:07.315Z,8.71
2019-03-27T09:11:07.270Z,8.88
2019-03-27T09:12:07.243Z,8.75
2019-03-27T09:13:07.223Z,8.94
2019-03-27T09:14:07.220Z,8.97
2019-03-27T09:15:07.221Z,8.98
2019-03-27T09:16:07.183Z,9.13
2019-03-27T09:17:07.237Z,9.06
2019-03-27T09:18:07.167Z,9.27
2019-03-27T09:19:07.159Z,9.23
2019-03-27T09:20:07.165Z,9.08
2019-03-27T09:21:07.142Z,9.01
2019-03-27T09:22:07.125Z,9.00
2019-03-27T09:23:07.113Z,8.94
2019-03-27T09:24:07.103Z,8.93
2019-03-27T09:25:07.113Z,8.94
2019-03-27T09:26:07.075Z,9.01
2019-03-27T09:27:07.069Z,9.06
2019-03-27T09:28:07.055Z,9.13
2019-03-27T09:29:08.572Z,9.20
2019-03-27T09:30:07.066Z,9.30
2019-03-27T09:31:07.049Z,9.26
2019-03-27T09:32:07.052Z,9.52
2019-03-27T09:33:07.013Z,9.89
2019-03-27T09:34:06.993Z,10.87
2019-03-27T09:35:06.994Z,12.22
2019-03-27T09:36:07.118Z,14.20
2019-03-27T09:37:06.959Z,15.11
2019-03-27T09:38:06.954Z,14.63
2019-03-27T09:39:06.944Z,13.94
2019-03-27T09:40:06.933Z,13.94
2019-03-27T09:41:06.957Z,14.02
2019-03-27T09:42:06.912Z,13.39
2019-03-27T09:43:06.901Z,12.71
2019-03-27T09:44:06.924Z,11.90
2019-03-27T09:45:06.883Z,11.48
2019-03-27T09:46:06.864Z,11.03
2019-03-27T09:47:06.904Z,10.78
2019-03-27T09:48:06.846Z,10.73
2019-03-27T09:49:06.839Z,10.54
2019-03-27T09:50:06.829Z,10.47
2019-03-27T09:51:06.819Z,10.42
2019-03-27T09:52:06.830Z,10.54
2019-03-27T09:53:06.799Z,10.46
2019-03-27T09:54:06.779Z,10.38
2019-03-27T09:55:06.768Z,10.42
2019-03-27T09:56:18.428Z,10.35
2019-03-27T09:57:07.782Z,10.26
2019-03-27T09:58:06.739Z,10.26
2019-03-27T09:59:06.731Z,10.17
2019-03-27T10:00:06.720Z,10.18
2019-03-27T10:01:06.705Z,10.18
2019-03-27T10:02:06.726Z,10.06
2019-03-27T10:03:06.713Z,10.01
2019-03-27T10:04:06.679Z,9.88
2019-03-27T10:05:06.670Z,9.88
2019-03-27T10:06:06.671Z,9.86
2019-03-27T10:07:06.646Z,9.81
2019-03-27T10:08:06.632Z,9.83
2019-03-27T10:09:06.642Z,9.73
2019-03-27T10:10:06.630Z,9.63
2019-03-27T10:11:06.606Z,9.74
2019-03-27T10:12:06.594Z,9.78
2019-03-27T10:13:06.578Z,9.67
2019-03-27T10:14:06.594Z,9.74
2019-03-27T10:15:06.565Z,9.62
2019-03-27T10:16:06.551Z,9.65
2019-03-27T10:17:06.544Z,9.73
2019-03-27T10:18:06.531Z,9.74
2019-03-27T10:19:06.535Z,9.73
2019-03-27T10:20:06.504Z,9.73
2019-03-27T10:21:06.502Z,9.63
2019-03-27T10:22:06.490Z,9.73
2019-03-27T10:23:06.481Z,9.71
2019-03-27T10:24:06.491Z,9.85
2019-03-27T10:25:06.456Z,9.86
2019-03-27T10:26:06.447Z,9.98
2019-03-27T10:27:06.444Z,10.06
2019-03-27T10:28:06.431Z,10.07
2019-03-27T10:29:06.437Z,10.04
2019-03-27T10:30:06.420Z,10.07
2019-03-27T10:31:06.390Z,10.04
2019-03-27T10:32:06.468Z,10.14
2019-03-27T10:33:06.367Z,10.14
2019-03-27T10:34:06.407Z,10.25
2019-03-27T10:35:06.358Z,10.16
2019-03-27T10:36:06.345Z,10.07
2019-03-27T10:37:06.369Z,10.07
2019-03-27T10:38:06.319Z,10.01
2019-03-27T10:39:06.302Z,9.95
2019-03-27T10:40:06.311Z,10.01
2019-03-27T10:41:06.300Z,9.93
2019-03-27T10:42:06.281Z,9.91
2019-03-27T10:43:06.276Z,9.91
2019-03-27T10:44:06.255Z,9.92
2019-03-27T10:45:06.275Z,9.92
2019-03-27T10:46:06.240Z,9.89
2019-03-27T10:47:06.226Z,9.83
2019-03-27T10:48:06.216Z,9.77
2019-03-27T10:49:06.205Z,9.81
2019-03-27T10:50:17.075Z,9.81
2019-03-27T10:51:07.200Z,9.83
2019-03-27T10:52:06.170Z,9.92
2019-03-27T10:53:06.154Z,10.22
2019-03-27T10:54:06.149Z,10.32
2019-03-27T10:55:06.150Z,10.26
2019-03-27T10:56:06.145Z,10.29
2019-03-27T10:57:06.128Z,10.25
2019-03-27T10:58:06.098Z,10.29
2019-03-27T10:59:06.090Z,10.17
2019-03-27T11:00:06.093Z,10.16
2019-03-27T11:01:07.459Z,10.26
2019-03-27T11:02:06.063Z,10.07
2019-03-27T11:03:06.054Z,10.16
2019-03-27T11:04:06.042Z,10.31
2019-03-27T11:05:06.031Z,10.49
2019-03-27T11:06:06.030Z,10.55
2019-03-27T11:07:06.035Z,10.39
2019-03-27T11:08:06.005Z,10.28
2019-03-27T11:09:05.995Z,10.20
2019-03-27T11:10:06.800Z,10.28
2019-03-27T11:11:05.966Z,10.25
2019-03-27T11:12:05.985Z,10.34
2019-03-27T11:13:05.945Z,10.38
2019-03-27T11:14:05.951Z,10.35
2019-03-27T11:15:05.927Z,10.42
2019-03-27T11:16:05.913Z,10.34
2019-03-27T11:17:05.901Z,10.26
2019-03-27T11:18:05.917Z,10.31
2019-03-27T11:19:05.888Z,10.26
2019-03-27T11:20:05.885Z,10.17
2019-03-27T11:21:05.893Z,10.18
2019-03-27T11:22:05.857Z,10.24
2019-03-27T11:23:05.862Z,10.25
2019-03-27T11:24:05.832Z,10.26
2019-03-27T11:25:05.830Z,10.31
2019-03-27T11:26:05.818Z,10.35
2019-03-27T11:27:05.830Z,10.24
2019-03-27T11:28:05.797Z,10.31
2019-03-27T11:29:05.800Z,10.24
2019-03-27T11:30:05.765Z,10.18
2019-03-27T11:31:05.815Z,10.26
2019-03-27T11:32:05.757Z,10.34
2019-03-27T11:33:05.754Z,10.38
2019-03-27T11:34:05.746Z,10.32
2019-03-27T11:35:05.710Z,10.26
2019-03-27T11:36:05.699Z,10.18
2019-03-27T11:37:05.691Z,10.18
2019-03-27T11:38:05.688Z,10.09
2019-03-27T11:39:05.696Z,10.07
2019-03-27T11:40:05.663Z,10.06
2019-03-27T11:41:05.677Z,10.11
2019-03-27T11:42:05.644Z,10.24
2019-03-27T11:43:05.634Z,10.35
2019-03-27T11:44:05.643Z,10.60
2019-03-27T11:45:05.616Z,10.65
2019-03-27T11:46:05.602Z,10.68
2019-03-27T11:47:05.594Z,10.55
2019-03-27T11:48:08.074Z,10.54
2019-03-27T11:49:05.607Z,10.57
2019-03-27T11:50:05.556Z,10.62
2019-03-27T11:51:05.542Z,10.36
2019-03-27T11:52:05.535Z,10.44
2019-03-27T11:53:05.538Z,10.38
2019-03-27T11:54:05.527Z,10.47
2019-03-27T11:55:05.534Z,10.51
2019-03-27T11:56:05.501Z,10.28
2019-03-27T11:57:05.485Z,10.34
2019-03-27T11:58:05.492Z,10.34
2019-03-27T11:59:05.493Z,10.29
2019-03-27T12:00:05.452Z,10.16
2019-03-27T12:01:05.457Z,10.20
2019-03-27T12:02:05.438Z,10.38
2019-03-27T12:03:05.424Z,10.24
2019-03-27T12:04:05.415Z,10.02
2019-03-27T12:05:05.423Z,10.14
2019-03-27T12:06:05.392Z,10.24
2019-03-27T12:07:05.409Z,10.42
2019-03-27T12:08:05.380Z,10.57
2019-03-27T12:09:05.363Z,10.72
2019-03-27T12:10:05.413Z,10.98
2019-03-27T12:11:05.343Z,11.45
2019-03-27T12:12:05.330Z,11.82
2019-03-27T12:13:05.319Z,11.96
2019-03-27T12:14:05.311Z,11.87
2019-03-27T12:15:05.335Z,12.37
2019-03-27T12:16:05.297Z,12.70
2019-03-27T12:17:05.292Z,12.87
2019-03-27T12:18:05.262Z,12.98
2019-03-27T12:19:05.265Z,12.87
2019-03-27T12:20:05.243Z,12.80
2019-03-27T12:21:05.251Z,12.33
2019-03-27T12:22:05.219Z,11.88
2019-03-27T12:23:05.205Z,11.74
2019-03-27T12:24:05.205Z,11.31
2019-03-27T12:25:05.205Z,11.01
2019-03-27T12:26:05.208Z,10.91
2019-03-27T12:27:05.167Z,10.70
2019-03-27T12:28:05.158Z,10.80
2019-03-27T12:29:05.145Z,10.90
2019-03-27T12:30:05.138Z,10.91
2019-03-27T12:31:05.117Z,10.86
2019-03-27T12:32:05.133Z,10.91
2019-03-27T12:33:05.102Z,11.05
2019-03-27T12:34:05.101Z,11.12
2019-03-27T12:35:05.085Z,11.13
2019-03-27T12:36:05.073Z,11.08
2019-03-27T12:37:05.094Z,11.24
2019-03-27T12:38:05.052Z,11.19
2019-03-27T12:39:05.044Z,11.16
2019-03-27T12:40:11.493Z,11.12
2019-03-27T12:41:06.037Z,11.19
2019-03-27T12:42:05.008Z,11.09
2019-03-27T12:43:05.017Z,11.08
2019-03-27T12:44:04.981Z,11.11
2019-03-27T12:45:04.971Z,10.98
2019-03-27T12:46:04.969Z,10.91
2019-03-27T12:47:04.965Z,11.05
2019-03-27T12:48:04.961Z,11.08
2019-03-27T12:49:04.962Z,11.17
2019-03-27T12:50:04.918Z,11.24
2019-03-27T12:51:12.627Z,11.31
2019-03-27T12:52:05.922Z,11.26
2019-03-27T12:53:04.903Z,11.11
2019-03-27T12:54:04.905Z,11.02
2019-03-27T12:55:04.997Z,10.93
2019-03-27T12:56:04.868Z,10.90
2019-03-27T12:57:04.855Z,10.95
2019-03-27T12:58:04.848Z,11.03
2019-03-27T12:59:04.891Z,10.91
2019-03-27T13:00:04.845Z,10.86
2019-03-27T13:01:04.820Z,10.84
2019-03-27T13:02:04.799Z,10.72
2019-03-27T13:03:04.784Z,10.83
2019-03-27T13:04:04.784Z,10.88
2019-03-27T13:05:04.796Z,10.94
2019-03-27T13:06:04.762Z,10.87
2019-03-27T13:07:04.765Z,10.88
2019-03-27T13:08:04.730Z,10.91
2019-03-27T13:09:04.727Z,11.02
2019-03-27T13:10:04.719Z,11.12
2019-03-27T13:11:04.725Z,11.16
2019-03-27T13:12:04.702Z,11.17